createdAt,value
2023-01-13T00:01:09.066Z,97432.72
2023-01-13T00:03:36.877Z,97430.56
2023-01-13T00:06:05.750Z,97425.75
2023-01-13T00:08:33.456Z,97425.72
2023-01-13T00:11:02.034Z,97422.50
2023-01-13T00:13:29.289Z,97419.56
2023-01-13T00:15:57.384Z,97419.81
2023-01-13T00:18:24.741Z,97425.16
2023-01-13T00:20:58.887Z,97421.13
2023-01-13T00:23:26.901Z,97413.59
2023-01-13T00:25:55.691Z,97407.47
2023-01-13T00:28:24.567Z,97423.06
2023-01-13T00:30:52.093Z,97418.22
2023-01-13T00:33:19.703Z,97406.44
2023-01-13T00:35:55.805Z,97409.94
2023-01-13T00:38:23.112Z,97408.91
2023-01-13T00:40:56.095Z,97410.50
2023-01-13T00:43:25.219Z,97403.25
2023-01-13T00:45:52.483Z,97392.25
2023-01-13T00:48:20.147Z,97390.63
2023-01-13T00:50:54.388Z,97392.22
2023-01-13T00:53:21.635Z,97386.06
2023-01-13T00:55:48.780Z,97387.41
2023-01-13T00:58:16.031Z,97371.81
2023-01-13T01:00:44.638Z,97378.53
2023-01-13T01:03:11.887Z,97365.66
2023-01-13T01:05:39.160Z,97360.84
2023-01-13T01:08:06.445Z,97365.38
2023-01-13T01:10:33.696Z,97363.78
2023-01-13T01:13:01.261Z,97363.22
2023-01-13T01:15:28.475Z,97366.97
2023-01-13T01:17:57.026Z,97358.91
2023-01-13T01:20:24.227Z,97358.41
2023-01-13T01:22:51.471Z,97361.38
2023-01-13T01:25:18.665Z,97360.84
2023-01-13T01:27:45.884Z,97356.84
2023-01-13T01:30:14.279Z,97348.56
2023-01-13T01:32:41.479Z,97355.78
2023-01-13T01:35:10.207Z,97354.97
2023-01-13T01:37:37.511Z,97352.03
2023-01-13T01:40:05.528Z,97342.38
2023-01-13T01:42:32.712Z,97350.13
2023-01-13T01:45:02.545Z,97299.91
2023-01-13T01:47:32.154Z,97344.50
2023-01-13T01:50:02.450Z,97341.28
2023-01-13T01:52:34.930Z,97314.44
2023-01-13T01:55:06.608Z,97327.34
2023-01-13T01:57:40.620Z,97327.84
2023-01-13T02:03:20.647Z,97324.09
2023-01-13T02:05:47.852Z,97330.28
2023-01-13T02:08:17.116Z,97342.84
2023-01-13T02:10:46.636Z,97337.50
2023-01-13T02:13:14.103Z,97327.31
2023-01-13T02:15:48.439Z,97318.22
2023-01-13T02:18:23.106Z,97320.13
2023-01-13T02:21:07.726Z,97317.72
2023-01-13T02:24:08.233Z,97311.53
2023-01-13T02:27:15.743Z,97280.97
2023-01-13T02:29:56.657Z,97305.66
2023-01-13T02:32:29.771Z,97312.09
2023-01-13T02:35:05.139Z,97297.59
2023-01-13T02:37:36.984Z,97269.13
2023-01-13T02:40:12.365Z,97287.41
2023-01-13T02:42:45.649Z,97297.56
2023-01-13T02:45:19.060Z,97298.91
2023-01-13T02:47:48.411Z,97280.66
2023-01-13T02:50:19.018Z,97293.28
2023-01-13T02:52:50.757Z,97293.28
2023-01-13T02:55:23.656Z,97290.31
2023-01-13T02:57:53.067Z,97286.25
2023-01-13T03:00:23.227Z,97290.81
2023-01-13T03:02:50.356Z,97298.84
2023-01-13T03:05:17.961Z,97254.63
2023-01-13T03:08:00.957Z,97271.84
2023-01-13T03:10:44.781Z,97293.84
2023-01-13T03:13:20.931Z,97290.88
2023-01-13T03:16:00.068Z,97284.72
2023-01-13T03:18:38.651Z,97285.78
2023-01-13T03:21:10.925Z,97291.16
2023-01-13T03:23:46.078Z,97289.81
2023-01-13T03:26:15.916Z,97288.47
2023-01-13T03:28:49.031Z,97296.81
2023-01-13T03:31:24.520Z,97297.13
2023-01-13T03:33:56.922Z,97293.09
2023-01-13T03:36:27.907Z,97283.44
2023-01-13T03:38:58.894Z,97279.16
2023-01-13T03:41:30.245Z,97269.22
2023-01-13T03:44:05.950Z,97270.00
2023-01-13T03:46:40.983Z,97276.16
2023-01-13T03:49:12.158Z,97265.97
2023-01-13T03:51:43.799Z,97245.31
2023-01-13T03:54:14.212Z,97262.47
2023-01-13T03:56:43.437Z,97267.63
2023-01-13T03:59:15.652Z,97260.09
2023-01-13T04:01:48.736Z,97259.56
2023-01-13T04:04:21.189Z,97259.03
2023-01-13T04:06:53.390Z,97255.53
2023-01-13T04:09:29.443Z,97248.56
2023-01-13T04:12:03.933Z,97265.44
2023-01-13T04:14:31.234Z,97260.88
2023-01-13T04:16:59.717Z,97253.66
2023-01-13T04:19:26.828Z,97256.88
2023-01-13T04:21:53.915Z,97248.31
2023-01-13T04:24:20.986Z,97245.34
2023-01-13T04:26:48.068Z,97239.47
2023-01-13T04:29:15.810Z,97244.28
2023-01-13T04:31:43.018Z,97241.88
2023-01-13T04:34:11.666Z,97246.69
2023-01-13T04:36:38.852Z,97238.38
2023-01-13T04:39:06.146Z,97234.38
2023-01-13T04:41:33.267Z,97241.59
2023-01-13T04:44:00.337Z,97241.06
2023-01-13T04:46:27.485Z,97248.56
2023-01-13T04:48:54.638Z,97243.19
2023-01-13T04:51:23.033Z,97246.69
2023-01-13T04:53:50.135Z,97234.63
2023-01-13T04:56:17.233Z,97241.31
2023-01-13T04:58:44.319Z,97238.66
2023-01-13T05:01:11.513Z,97244.28
2023-01-13T05:03:38.646Z,97236.78
2023-01-13T05:06:06.305Z,97231.13
2023-01-13T05:08:34.799Z,97229.28
2023-01-13T05:11:01.938Z,97202.41
2023-01-13T05:13:29.040Z,97224.41
2023-01-13T05:15:56.163Z,97233.03
2023-01-13T05:18:23.362Z,97227.34
2023-01-13T05:20:50.431Z,97231.13
2023-01-13T05:23:17.499Z,97244.53
2023-01-13T05:25:47.666Z,97241.31
2023-01-13T05:28:14.909Z,97239.97
2023-01-13T05:30:44.130Z,97239.19
2023-01-13T05:33:12.711Z,97241.03
2023-01-13T05:35:40.302Z,97237.56
2023-01-13T05:38:07.823Z,97238.63
2023-01-13T05:40:35.227Z,97225.78
2023-01-13T05:43:05.964Z,97237.31
2023-01-13T05:45:33.061Z,97240.78
2023-01-13T05:48:00.166Z,97242.41
2023-01-13T05:50:27.235Z,97236.22
2023-01-13T05:52:54.299Z,97240.22
2023-01-13T05:55:21.406Z,97241.31
2023-01-13T05:57:48.470Z,97235.13
2023-01-13T06:00:18.491Z,97235.41
2023-01-13T06:02:45.625Z,97234.88
2023-01-13T06:05:12.745Z,97232.72
2023-01-13T06:07:39.818Z,97230.34
2023-01-13T06:10:08.476Z,97227.38
2023-01-13T06:12:35.713Z,97232.75
2023-01-13T06:15:03.007Z,97234.34
2023-01-13T06:17:31.601Z,97225.50
2023-01-13T06:19:58.663Z,97217.72
2023-01-13T06:22:28.277Z,97202.97
2023-01-13T06:24:55.441Z,97224.41
2023-01-13T06:27:23.176Z,97227.31
2023-01-13T06:29:50.600Z,97219.81
2023-01-13T06:32:20.838Z,97219.19
2023-01-13T06:34:52.641Z,97216.16
2023-01-13T06:37:21.654Z,97224.75
2023-01-13T06:39:49.281Z,97218.91
2023-01-13T06:42:16.393Z,97225.91
2023-01-13T06:44:44.327Z,97216.53
2023-01-13T06:47:11.497Z,97223.25
2023-01-13T06:49:38.609Z,97224.28
2023-01-13T06:52:07.100Z,97217.34
2023-01-13T06:54:34.247Z,97226.50
2023-01-13T06:57:01.555Z,97226.50
2023-01-13T06:59:28.660Z,97216.00
2023-01-13T07:01:55.864Z,97214.13
2023-01-13T07:04:23.084Z,97221.38
2023-01-13T07:06:50.217Z,97218.47
2023-01-13T07:09:18.607Z,97219.81
2023-01-13T07:11:45.688Z,97228.66
2023-01-13T07:14:12.772Z,97222.75
2023-01-13T07:16:39.888Z,97230.53
2023-01-13T07:19:06.992Z,97236.75
2023-01-13T07:21:34.133Z,97228.94
2023-01-13T07:24:01.227Z,97232.19
2023-01-13T07:26:29.645Z,97227.91
2023-01-13T07:28:57.770Z,97219.59
2023-01-13T07:31:24.880Z,97221.72
2023-01-13T07:33:52.000Z,97221.47
2023-01-13T07:36:19.182Z,97226.00
2023-01-13T07:38:46.241Z,97221.69
2023-01-13T07:41:14.166Z,97226.31
2023-01-13T07:43:42.596Z,97227.38
2023-01-13T07:46:09.736Z,97231.94
2023-01-13T07:48:36.967Z,97241.56
2023-01-13T07:51:05.541Z,97227.91
2023-01-13T07:53:33.221Z,97228.44
2023-01-13T07:56:00.976Z,97226.00
2023-01-13T07:58:28.741Z,97224.94
2023-01-13T08:00:57.258Z,97225.22
2023-01-13T08:03:24.923Z,97222.53
2023-01-13T08:05:52.028Z,97218.25
2023-01-13T08:08:19.231Z,97220.38
2023-01-13T08:10:46.307Z,97224.72
2023-01-13T08:13:16.119Z,97231.41
2023-01-13T08:15:43.295Z,97224.72
2023-01-13T08:18:12.138Z,97231.13
2023-01-13T08:20:39.330Z,97233.00
2023-01-13T08:23:07.483Z,97242.66
2023-01-13T08:25:34.887Z,97242.13
2023-01-13T08:28:02.244Z,97242.09
2023-01-13T08:30:29.452Z,97229.78
2023-01-13T08:32:56.598Z,97230.84
2023-01-13T08:35:25.054Z,97241.56
2023-01-13T08:37:52.281Z,97238.09
2023-01-13T08:40:19.881Z,97237.31
2023-01-13T08:42:48.608Z,97249.88
2023-01-13T08:45:16.693Z,97243.19
2023-01-13T08:47:43.776Z,97239.16
2023-01-13T08:50:12.161Z,97232.50
2023-01-13T08:52:41.064Z,97231.66
2023-01-13T08:55:09.530Z,97229.25
2023-01-13T08:57:36.918Z,97222.56
2023-01-13T09:00:05.713Z,97229.78
2023-01-13T09:02:33.125Z,97228.72
2023-01-13T09:05:00.578Z,97234.09
2023-01-13T09:07:27.704Z,97229.81
2023-01-13T09:09:56.096Z,97230.84
2023-01-13T09:12:23.481Z,97224.97
2023-01-13T09:14:51.004Z,97229.81
2023-01-13T09:17:18.092Z,97234.06
2023-01-13T09:19:45.198Z,97231.38
2023-01-13T09:22:15.896Z,97242.94
2023-01-13T09:24:43.421Z,97216.66
2023-01-13T09:27:13.398Z,97240.78
2023-01-13T09:29:40.649Z,97234.63
2023-01-13T09:32:11.145Z,97237.03
2023-01-13T09:34:38.516Z,97241.88
2023-01-13T09:37:06.852Z,97230.03
2023-01-13T09:39:34.576Z,97219.31
2023-01-13T09:42:05.061Z,97252.88
2023-01-13T09:44:41.233Z,97244.28
2023-01-13T09:47:17.868Z,97245.09
2023-01-13T09:49:45.345Z,97243.47
2023-01-13T09:52:17.304Z,97234.63
2023-01-13T09:54:48.308Z,97249.63
2023-01-13T09:57:17.965Z,97245.31
2023-01-13T09:59:46.761Z,97243.44
2023-01-13T10:02:31.629Z,97245.59
2023-01-13T10:05:06.804Z,97221.69
2023-01-13T10:07:37.303Z,97210.19
2023-01-13T10:10:10.849Z,97230.00
2023-01-13T10:12:37.967Z,97205.38
2023-01-13T10:15:14.061Z,97211.75
2023-01-13T10:17:47.283Z,97206.91
2023-01-13T10:20:20.969Z,97209.34
2023-01-13T10:22:59.783Z,97205.53
2023-01-13T10:25:34.166Z,97201.47
2023-01-13T10:28:07.964Z,97200.38
2023-01-13T10:30:38.133Z,97190.16
2023-01-13T10:33:11.335Z,97205.41
2023-01-13T10:35:58.735Z,97212.13
2023-01-13T10:38:29.097Z,97202.44
2023-01-13T10:40:58.015Z,97202.16
2023-01-13T10:43:26.391Z,97194.63
2023-01-13T10:46:00.453Z,97195.69
2023-01-13T10:48:40.109Z,97188.47
2023-01-13T10:51:17.935Z,97194.63
2023-01-13T10:53:48.833Z,97192.72
2023-01-13T10:56:17.383Z,97190.63
2023-01-13T10:58:44.630Z,97174.81
2023-01-13T11:01:21.497Z,97180.97
2023-01-13T11:03:48.756Z,97161.94
2023-01-13T11:06:21.376Z,97174.50
2023-01-13T11:08:51.079Z,97173.97
2023-01-13T11:11:38.302Z,97147.00
2023-01-13T11:14:15.170Z,97178.03
2023-01-13T11:16:53.501Z,97184.72
2023-01-13T11:19:24.026Z,97186.44
2023-01-13T11:21:56.255Z,97182.97
2023-01-13T11:24:30.386Z,97187.28
2023-01-13T11:27:03.883Z,97188.88
2023-01-13T11:29:39.440Z,97182.97
2023-01-13T11:32:12.143Z,97181.63
2023-01-13T11:34:41.314Z,97181.91
2023-01-13T11:37:15.398Z,97182.47
2023-01-13T11:39:51.013Z,97184.66
2023-01-13T11:42:24.076Z,97185.97
2023-01-13T11:45:01.134Z,97185.16
2023-01-13T11:47:31.575Z,97192.66
2023-01-13T11:49:59.749Z,97197.22
2023-01-13T11:52:38.804Z,97190.22
2023-01-13T11:55:23.020Z,97199.88
2023-01-13T11:58:05.347Z,97196.38
2023-01-13T12:00:59.122Z,97205.19
2023-01-13T12:03:35.337Z,97216.44
2023-01-13T12:06:15.265Z,97222.31
2023-01-13T12:08:59.252Z,97233.59
2023-01-13T12:11:31.273Z,97238.44
2023-01-13T12:14:13.672Z,97224.50
2023-01-13T12:16:46.274Z,97237.88
2023-01-13T12:19:22.024Z,97240.16
2023-01-13T12:22:07.692Z,97247.16
2023-01-13T12:24:40.850Z,97245.78
2023-01-13T12:27:15.437Z,97214.78
2023-01-13T12:29:44.359Z,97222.28
2023-01-13T12:32:14.587Z,97240.75
2023-01-13T12:34:59.797Z,97228.97
2023-01-13T12:37:35.768Z,97226.00
2023-01-13T12:40:19.254Z,97225.25
2023-01-13T12:42:52.546Z,97229.28
2023-01-13T12:45:26.762Z,97223.38
2023-01-13T12:47:54.267Z,97232.78
2023-01-13T12:50:58.007Z,97236.81
2023-01-13T12:53:35.962Z,97236.81
2023-01-13T12:56:36.568Z,97236.34
2023-01-13T12:59:44.436Z,97232.84
2023-01-13T13:02:35.080Z,97236.91
2023-01-13T13:05:43.499Z,97252.47
2023-01-13T13:08:24.158Z,97251.66
2023-01-13T13:11:02.366Z,97267.00
2023-01-13T13:13:45.562Z,97264.06
2023-01-13T13:16:45.419Z,97266.22
2023-01-13T13:19:43.836Z,97274.81
2023-01-13T13:22:49.993Z,97275.34
2023-01-13T13:25:24.135Z,97269.72
2023-01-13T13:28:18.851Z,97286.34
2023-01-13T13:31:20.510Z,97285.25
2023-01-13T13:34:08.331Z,97287.38
2023-01-13T13:37:09.143Z,97288.72
2023-01-13T13:39:38.942Z,97280.16
2023-01-13T13:42:13.803Z,97273.97
2023-01-13T13:44:45.428Z,97271.59
2023-01-13T13:47:12.533Z,97270.78
2023-01-13T13:49:41.819Z,97269.44
2023-01-13T13:52:16.939Z,97275.88
2023-01-13T13:54:46.269Z,97262.22
2023-01-13T13:57:26.917Z,97258.19
2023-01-13T13:59:55.706Z,97264.38
2023-01-13T14:02:29.115Z,97271.88
2023-01-13T14:05:14.944Z,97268.41
2023-01-13T14:07:43.813Z,97271.09
2023-01-13T14:10:18.423Z,97279.94
2023-01-13T14:12:46.942Z,97292.56
2023-01-13T14:15:29.295Z,97295.50
2023-01-13T14:17:56.427Z,97310.25
2023-01-13T14:20:23.741Z,97309.19
2023-01-13T14:22:53.126Z,97321.56
2023-01-13T14:25:32.330Z,97323.16
2023-01-13T14:28:13.944Z,97318.31
2023-01-13T14:30:42.260Z,97318.31
2023-01-13T14:33:15.455Z,97318.56
2023-01-13T14:36:18.137Z,97329.84
2023-01-13T14:38:47.453Z,97342.47
2023-01-13T14:41:21.565Z,97355.88
2023-01-13T14:43:53.164Z,97361.81
2023-01-13T14:46:20.574Z,97381.13
2023-01-13T14:48:49.271Z,97373.59
2023-01-13T14:51:23.395Z,97381.38
2023-01-13T14:53:51.044Z,97378.16
2023-01-13T14:56:38.354Z,97332.00
2023-01-13T14:59:35.833Z,97353.75
2023-01-13T15:02:43.790Z,97356.69
2023-01-13T15:05:30.690Z,97377.91
2023-01-13T15:07:59.971Z,97388.63
2023-01-13T15:10:30.416Z,97394.28
2023-01-13T15:12:59.332Z,97400.44
2023-01-13T15:15:29.966Z,97419.25
2023-01-13T15:17:57.443Z,97421.09
2023-01-13T15:20:25.408Z,97432.91
2023-01-13T15:22:52.689Z,97435.59
2023-01-13T15:25:19.996Z,97434.28
2023-01-13T15:27:50.072Z,97417.09
2023-01-13T15:30:19.818Z,97409.31
2023-01-13T15:32:48.444Z,97416.81
2023-01-13T15:35:16.871Z,97416.53
2023-01-13T15:37:45.789Z,97383.78
2023-01-13T15:40:14.916Z,97410.09
2023-01-13T15:42:42.013Z,97411.16
2023-01-13T15:45:12.496Z,97424.78
2023-01-13T15:47:39.568Z,97436.78
2023-01-13T15:50:13.171Z,97443.16
2023-01-13T15:52:40.250Z,97446.63
2023-01-13T15:55:08.125Z,97457.66
2023-01-13T15:57:37.913Z,97463.03
2023-01-13T16:00:12.903Z,97464.94
2023-01-13T16:02:40.076Z,97472.47
2023-01-13T16:05:08.609Z,97477.06
2023-01-13T16:07:36.211Z,97487.81
2023-01-13T16:10:03.702Z,97506.34
2023-01-13T16:12:30.809Z,97499.38
2023-01-13T16:14:57.944Z,97512.53
2023-01-13T16:17:26.807Z,97530.63
2023-01-13T16:19:54.959Z,97528.50
2023-01-13T16:22:23.389Z,97525.53
2023-01-13T16:24:50.502Z,97527.69
2023-01-13T16:27:19.088Z,97536.56
2023-01-13T16:29:47.984Z,97549.47
2023-01-13T16:32:15.239Z,97545.44
2023-01-13T16:34:42.710Z,97540.06
2023-01-13T16:37:19.064Z,97547.88
2023-01-13T16:39:47.978Z,97554.88
2023-01-13T16:42:15.372Z,97571.81
2023-01-13T16:44:42.652Z,97571.53
2023-01-13T16:47:13.358Z,97572.09
2023-01-13T16:49:40.515Z,97578.53
2023-01-13T16:52:08.698Z,97577.16
2023-01-13T16:54:36.085Z,97578.53
2023-01-13T16:57:04.653Z,97583.38
2023-01-13T16:59:31.900Z,97593.03
2023-01-13T17:01:59.001Z,97594.38
2023-01-13T17:04:26.106Z,97593.84
2023-01-13T17:06:57.277Z,97598.69
2023-01-13T17:09:26.995Z,97598.69
2023-01-13T17:11:55.029Z,97600.53
2023-01-13T17:14:24.363Z,97614.00
2023-01-13T17:16:53.449Z,97626.06
2023-01-13T17:19:22.539Z,97629.31
2023-01-13T17:21:49.812Z,97632.47
2023-01-13T17:24:17.291Z,97644.00
2023-01-13T17:26:46.655Z,97641.31
2023-01-13T17:29:15.919Z,97645.34
2023-01-13T17:31:44.890Z,97637.00
2023-01-13T17:34:13.260Z,97648.84
2023-01-13T17:36:40.951Z,97653.97
2023-01-13T17:39:08.072Z,97646.19
2023-01-13T17:41:35.347Z,97648.09
2023-01-13T17:44:02.449Z,97651.06
2023-01-13T17:46:29.527Z,97656.47
2023-01-13T17:48:57.942Z,97659.97
2023-01-13T17:51:25.137Z,97665.34
2023-01-13T17:53:53.605Z,97675.56
2023-01-13T17:56:20.706Z,97672.84
2023-01-13T17:58:47.868Z,97670.19
2023-01-13T18:01:17.450Z,97676.63
2023-01-13T18:03:44.914Z,97667.50
2023-01-13T18:06:16.347Z,97677.16
2023-01-13T18:08:43.576Z,97676.63
2023-01-13T18:11:10.847Z,97680.13
2023-01-13T18:13:37.972Z,97678.50
2023-01-13T18:16:07.968Z,97685.25
2023-01-13T18:18:35.107Z,97686.84
2023-01-13T18:21:02.439Z,97694.66
2023-01-13T18:23:30.837Z,97694.91
2023-01-13T18:25:57.918Z,97687.13
2023-01-13T18:28:25.127Z,97683.88
2023-01-13T18:30:52.209Z,97697.06
2023-01-13T18:33:19.298Z,97698.41
2023-01-13T18:35:46.493Z,97691.69
2023-01-13T18:38:13.702Z,97696.25
2023-01-13T18:40:44.441Z,97707.00
2023-01-13T18:43:11.570Z,97696.25
2023-01-13T18:45:38.668Z,97702.16
2023-01-13T18:48:06.235Z,97704.06
2023-01-13T18:50:34.262Z,97700.25
2023-01-13T18:53:01.800Z,97691.94
2023-01-13T18:55:29.166Z,97698.66
2023-01-13T18:57:57.823Z,97701.34
2023-01-13T19:00:25.451Z,97708.28
2023-01-13T19:07:59.973Z,97705.28
2023-01-13T19:10:27.061Z,97703.91
2023-01-13T19:12:54.237Z,97711.72
2023-01-13T19:15:22.675Z,97708.19
2023-01-13T19:17:49.723Z,97709.53
2023-01-13T19:20:17.126Z,97707.41
2023-01-13T19:22:44.313Z,97713.03
2023-01-13T19:25:11.386Z,97712.53
2023-01-13T19:27:38.464Z,97721.69
2023-01-13T19:30:06.925Z,97714.53
2023-01-13T19:32:35.615Z,97722.03
2023-01-13T19:35:02.762Z,97726.56
2023-01-13T19:37:29.840Z,97728.66
2023-01-13T19:39:57.742Z,97732.69
2023-01-13T19:42:24.967Z,97726.31
2023-01-13T19:44:52.268Z,97733.00
2023-01-13T19:47:20.724Z,97728.44
2023-01-13T19:49:49.336Z,97745.94
2023-01-13T19:52:16.445Z,97741.63
2023-01-13T19:54:44.575Z,97744.03
2023-01-13T19:57:12.236Z,97754.47
2023-01-13T19:59:39.489Z,97754.47
2023-01-13T20:02:13.190Z,97754.78
2023-01-13T20:04:40.308Z,97753.44
2023-01-13T20:07:08.707Z,97754.25
2023-01-13T20:09:36.068Z,97754.53
2023-01-13T20:12:03.439Z,97762.06
2023-01-13T20:14:30.522Z,97755.91
2023-01-13T20:16:57.612Z,97763.44
2023-01-13T20:19:24.692Z,97775.53
2023-01-13T20:21:51.758Z,97783.34
2023-01-13T20:24:20.175Z,97777.16
2023-01-13T20:26:47.311Z,97787.09
2023-01-13T20:29:14.407Z,97784.97
2023-01-13T20:31:41.545Z,97791.69
2023-01-13T20:34:08.853Z,97791.19
2023-01-13T20:36:36.402Z,97794.66
2023-01-13T20:39:05.289Z,97797.59
2023-01-13T20:41:33.762Z,97801.88
2023-01-13T20:44:00.832Z,97809.69
2023-01-13T20:46:28.014Z,97812.09
2023-01-13T20:48:55.115Z,97822.84
2023-01-13T20:51:22.224Z,97822.84
2023-01-13T20:53:49.319Z,97801.28
2023-01-13T20:56:16.420Z,97830.91
2023-01-13T20:58:44.838Z,97844.91
2023-01-13T21:01:12.066Z,97842.50
2023-01-13T21:03:39.309Z,97848.97
2023-01-13T21:06:06.788Z,97847.59
2023-01-13T21:08:33.899Z,97846.81
2023-01-13T21:11:03.697Z,97840.91
2023-01-13T21:13:32.051Z,97838.22
2023-01-13T21:16:00.609Z,97840.66
2023-01-13T21:18:27.715Z,97842.53
2023-01-13T21:20:54.801Z,97841.97
2023-01-13T21:23:21.911Z,97842.53
2023-01-13T21:25:48.985Z,97848.44
2023-01-13T21:28:17.607Z,97836.88
2023-01-13T21:30:44.700Z,97840.91
2023-01-13T21:33:14.074Z,97843.84
2023-01-13T21:35:41.176Z,97849.97
2023-01-13T21:38:10.641Z,97859.09
2023-01-13T21:40:37.788Z,97867.41
2023-01-13T21:43:04.872Z,97863.63
2023-01-13T21:45:32.024Z,97861.72
2023-01-13T21:47:59.167Z,97867.16
2023-01-13T21:50:28.635Z,97866.31
2023-01-13T21:52:57.770Z,97859.81
2023-01-13T21:55:26.049Z,97857.34
2023-01-13T21:57:55.372Z,97854.66
2023-01-13T22:00:24.079Z,97872.66
2023-01-13T22:02:51.488Z,97872.06
2023-01-13T22:05:21.085Z,97871.78
2023-01-13T22:07:49.976Z,97872.03
2023-01-13T22:10:19.223Z,97874.41
2023-01-13T22:12:46.669Z,97882.47
2023-01-13T22:15:15.105Z,97879.50
2023-01-13T22:17:42.680Z,97881.38
2023-01-13T22:20:11.604Z,97887.25
2023-01-13T22:22:38.920Z,97873.56
2023-01-13T22:25:10.658Z,97886.22
2023-01-13T22:27:38.728Z,97870.34
2023-01-13T22:30:07.643Z,97883.03
2023-01-13T22:32:36.559Z,97883.53
2023-01-13T22:35:04.147Z,97879.25
2023-01-13T22:37:31.627Z,97897.28
2023-01-13T22:39:58.718Z,97897.78
2023-01-13T22:42:27.203Z,97896.75
2023-01-13T22:44:54.276Z,97900.22
2023-01-13T22:47:21.366Z,97895.91
2023-01-13T22:49:48.463Z,97898.03
2023-01-13T22:52:16.364Z,97908.53
2023-01-13T22:54:43.952Z,97900.19
2023-01-13T22:57:11.580Z,97902.59
2023-01-13T22:59:39.989Z,97906.91
2023-01-13T23:02:07.067Z,97912.25
2023-01-13T23:04:34.375Z,97907.94
2023-01-13T23:07:01.508Z,97914.41
2023-01-13T23:09:28.600Z,97903.59
2023-01-13T23:11:57.247Z,97918.06
2023-01-13T23:14:24.981Z,97926.47
2023-01-13T23:16:53.504Z,97930.75
2023-01-13T23:19:21.519Z,97925.66
2023-01-13T23:21:48.598Z,97937.72
2023-01-13T23:24:15.671Z,97929.97
2023-01-13T23:26:42.755Z,97927.03
2023-01-13T23:29:12.525Z,97937.25
2023-01-13T23:31:40.275Z,97944.25
2023-01-13T23:34:08.773Z,97937.72
2023-01-13T23:36:36.121Z,97940.16
2023-01-13T23:39:03.336Z,97933.38
2023-01-13T23:41:30.438Z,97930.47
2023-01-13T23:43:59.100Z,97930.94
2023-01-13T23:46:27.502Z,97937.13
2023-01-13T23:48:54.709Z,97935.53
2023-01-13T23:51:23.628Z,97927.97
2023-01-13T23:53:50.999Z,97934.72
2023-01-13T23:56:20.515Z,97942.22
2023-01-13T23:58:48.249Z,97942.22
